Time;durP1;ratioP1;P1;durP2;ratioP2;P2;SDS_P1;SDS_P2;PMS_P1;PMS_P2;Temp;Humidity;BMP_temperature;BMP_pressure;BME280_temperature;BME280_humidity;BME280_pressure;Samples;Min_cycle;Max_cycle;Signal;HPM_P1;HPM_P2
2022/08/18 00:02:07;;;;;;;12.55;9.20;;;;;;;21.38;79.61;100725.69;5053765;28;20055;-72
2022/08/18 00:04:37;;;;;;;11.35;9.07;;;;;;;21.41;80.12;100727.72;5054611;28;20059;-72
2022/08/18 00:07:21;;;;;;;11.38;8.32;;;;;;;21.44;79.83;100726.97;5055979;28;20045;-72
2022/08/18 00:09:49;;;;;;;11.23;8.68;;;;;;;21.34;80.05;100722.03;5073002;28;20061;-72
2022/08/18 00:12:23;;;;;;;13.98;9.18;;;;;;;21.13;81.01;100721.84;5042637;28;20056;-72
2022/08/18 00:14:52;;;;;;;12.48;9.38;;;;;;;21.15;81.86;100723.06;5053455;28;20508;-65
2022/08/18 00:17:20;;;;;;;12.25;9.30;;;;;;;21.17;81.44;100711.47;5068417;28;20053;-67
2022/08/18 00:19:47;;;;;;;13.23;9.10;;;;;;;21.09;81.61;100721.81;5074608;28;20048;-65
2022/08/18 00:22:18;;;;;;;14.85;9.68;;;;;;;21.10;81.67;100720.63;5065368;28;20055;-71
2022/08/18 00:24:49;;;;;;;13.38;9.25;;;;;;;21.07;82.04;100718.59;5065960;28;20060;-71
2022/08/18 00:27:28;;;;;;;16.67;9.77;;;;;;;21.15;81.69;100725.88;5056481;28;20057;-66
2022/08/18 00:30:00;;;;;;;11.23;9.50;;;;;;;21.03;81.70;100716.91;5069584;28;20063;-65
2022/08/18 00:32:32;;;;;;;14.52;9.73;;;;;;;21.19;80.97;100723.91;5054120;28;20041;-66
2022/08/18 00:35:08;;;;;;;13.50;9.45;;;;;;;21.30;80.06;100721.22;5069743;28;20036;-65
2022/08/18 00:37:36;;;;;;;14.88;9.90;;;;;;;21.29;80.32;100718.81;5054820;28;20059;-66
2022/08/18 00:40:05;;;;;;;15.73;10.32;;;;;;;21.21;80.63;100715.13;5052275;28;20068;-65
2022/08/18 00:42:33;;;;;;;12.82;9.07;;;;;;;21.34;80.48;100721.25;5052230;28;20056;-65
2022/08/18 00:45:03;;;;;;;14.55;8.95;;;;;;;21.41;80.00;100721.31;5069488;28;20044;-65
2022/08/18 00:47:30;;;;;;;12.93;9.25;;;;;;;21.11;81.01;100718.63;5074213;28;20091;-65
2022/08/18 00:50:20;;;;;;;14.40;9.15;;;;;;;21.27;80.57;100716.38;5058133;28;20052;-71
2022/08/18 00:53:04;;;;;;;17.40;9.23;;;;;;;21.32;79.61;100720.84;5053680;28;20075;-71
2022/08/18 00:55:32;;;;;;;12.20;9.00;;;;;;;21.31;79.68;100724.81;5052202;28;20048;-66
2022/08/18 00:58:08;;;;;;;16.23;9.50;;;;;;;21.11;80.27;100732.63;5057081;28;20056;-65
2022/08/18 01:00:36;;;;;;;14.40;9.25;;;;;;;20.95;81.38;100732.00;5074037;28;20052;-65
2022/08/18 01:03:08;;;;;;;13.02;9.20;;;;;;;21.10;81.08;100740.22;5058194;28;20056;-65
2022/08/18 01:05:42;;;;;;;11.95;9.38;;;;;;;21.10;80.02;100731.00;5057591;28;20056;-65
2022/08/18 01:08:13;;;;;;;15.68;9.45;;;;;;;20.97;80.84;100736.03;5057619;28;20543;-65
2022/08/18 01:10:41;;;;;;;14.70;9.70;;;;;;;21.04;80.87;100726.94;5056748;28;20052;-65
2022/08/18 01:13:09;;;;;;;13.32;10.40;;;;;;;21.26;80.43;100734.38;5063943;28;20051;-65
2022/08/18 01:15:37;;;;;;;13.57;9.45;;;;;;;21.12;80.47;100725.81;5058459;28;20107;-65
2022/08/18 01:23:54;;;;;;;12.77;9.50;;;;;;;20.86;82.05;100721.13;5049575;28;20633;-72
2022/08/18 01:26:23;;;;;;;12.40;9.77;;;;;;;21.00;81.88;100715.72;5055842;28;20065;-65
2022/08/18 01:28:51;;;;;;;14.07;9.95;;;;;;;20.84;82.09;100719.88;5066946;28;20056;-71
2022/08/18 01:31:29;;;;;;;12.88;9.85;;;;;;;20.62;82.94;100716.03;5057576;28;20056;-71
2022/08/18 01:33:58;;;;;;;12.50;9.55;;;;;;;20.55;84.21;100723.53;5055975;28;20052;-71
2022/08/18 01:36:25;;;;;;;13.02;10.00;;;;;;;20.46;84.21;100721.00;5057205;28;20045;-65
2022/08/18 01:38:53;;;;;;;13.20;10.38;;;;;;;20.43;85.30;100726.56;5034253;28;20049;-65
2022/08/18 01:41:21;;;;;;;14.00;9.98;;;;;;;20.77;83.97;100728.19;5056465;28;20049;-72
2022/08/18 01:43:58;;;;;;;12.75;9.77;;;;;;;20.45;83.30;100733.38;5072059;28;20132;-71
2022/08/18 01:46:28;;;;;;;14.18;10.55;;;;;;;20.17;84.50;100742.19;5057017;28;20071;-70
2022/08/18 01:48:57;;;;;;;;;;;;;;;20.23;85.28;100734.28;5038572;28;20048;-70
2022/08/18 01:51:24;;;;;;;11.95;9.95;;;;;;;20.42;84.34;100734.13;5071918;28;19921;-71
2022/08/18 01:54:10;;;;;;;14.75;10.02;;;;;;;20.47;84.47;100741.41;5051219;28;20055;-65
2022/08/18 01:56:37;;;;;;;;;;;;;;;20.57;84.03;100744.34;5055232;28;20064;-65
2022/08/18 01:59:06;;;;;;;13.52;9.02;;;;;;;20.16;84.99;100753.75;5057021;28;19927;-64
2022/08/18 02:01:37;;;;;;;11.02;9.48;;;;;;;20.00;85.88;100756.66;5044604;28;20049;-63
2022/08/18 02:04:16;;;;;;;15.75;9.07;;;;;;;19.93;86.14;100761.34;5046318;28;20079;-64
2022/08/18 02:07:08;;;;;;;13.20;9.95;;;;;;;20.05;86.68;100753.56;5023913;28;20049;-63
2022/08/18 02:09:36;;;;;;;12.65;9.35;;;;;;;20.08;86.23;100752.00;5064015;28;20057;-63
2022/08/18 02:12:05;;;;;;;11.77;9.15;;;;;;;19.97;86.79;100760.22;5067735;28;20049;-64
2022/08/18 02:14:34;;;;;;;14.65;9.43;;;;;;;19.70;87.39;100752.97;5055511;28;20076;-63
2022/08/18 02:17:03;;;;;;;16.55;9.85;;;;;;;19.78;87.38;100757.53;5059110;28;20515;-63
2022/08/18 02:19:40;;;;;;;12.70;9.55;;;;;;;19.49;86.47;100755.41;5075762;28;20052;-70
2022/08/18 02:22:10;;;;;;;12.30;9.07;;;;;;;19.25;88.37;100760.53;5066184;28;20053;-71
2022/08/18 02:24:37;;;;;;;12.82;8.82;;;;;;;19.25;88.43;100758.53;5053449;28;20049;-64
2022/08/18 02:27:06;;;;;;;13.60;9.32;;;;;;;19.05;87.52;100765.31;5066146;28;20060;-71
2022/08/18 02:29:34;;;;;;;9.25;8.07;;;;;;;18.88;86.59;100771.38;5056937;28;20424;-70
2022/08/18 02:32:01;;;;;;;13.32;8.32;;;;;;;18.79;87.63;100762.41;5060719;28;20053;-71
2022/08/18 02:34:28;;;;;;;12.40;8.07;;;;;;;18.98;87.13;100767.97;5076657;28;20056;-71
2022/08/18 02:36:58;;;;;;;10.02;7.80;;;;;;;18.64;87.00;100766.06;5068424;28;20163;-65
2022/08/18 02:39:27;;;;;;;11.13;7.57;;;;;;;18.60;87.41;100760.41;5055231;28;20063;-64
2022/08/18 02:41:55;;;;;;;10.52;7.78;;;;;;;18.73;86.95;100766.66;5071159;28;20045;-64
2022/08/18 02:44:22;;;;;;;14.88;8.25;;;;;;;18.41;87.97;100767.97;5056527;28;20071;-71
2022/08/18 02:46:53;;;;;;;10.93;7.82;;;;;;;18.22;89.81;100768.69;5060706;28;20044;-70
2022/08/18 02:49:20;;;;;;;11.77;8.20;;;;;;;18.12;90.03;100765.63;5057451;28;20048;-64
2022/08/18 02:51:50;;;;;;;11.65;7.90;;;;;;;18.19;90.29;100758.25;5054768;28;20524;-65
2022/08/18 02:54:19;;;;;;;9.68;7.05;;;;;;;18.36;89.39;100763.44;5055910;28;20049;-64
2022/08/18 02:56:46;;;;;;;14.32;8.20;;;;;;;18.37;88.74;100755.88;5055549;28;20044;-64
2022/08/18 02:59:16;;;;;;;11.95;7.82;;;;;;;18.53;88.69;100749.09;5056291;28;20060;-71
2022/08/18 03:01:46;;;;;;;11.43;7.53;;;;;;;18.50;87.83;100749.00;5051889;28;20483;-65
2022/08/18 03:04:18;;;;;;;10.90;7.15;;;;;;;18.59;86.74;100744.03;5054612;28;20496;-65
2022/08/18 03:06:55;;;;;;;9.35;7.38;;;;;;;18.54;87.35;100749.91;5055394;28;20047;-65
2022/08/18 03:09:23;;;;;;;9.52;7.63;;;;;;;18.48;87.57;100752.16;5071141;28;20049;-65
2022/08/18 03:11:51;;;;;;;10.52;7.78;;;;;;;18.55;87.43;100751.53;5066402;28;20134;-65
2022/08/18 03:14:18;;;;;;;9.73;7.20;;;;;;;18.86;85.48;100743.78;5055221;28;20060;-65
2022/08/18 03:16:47;;;;;;;12.20;7.32;;;;;;;19.04;84.23;100746.94;5053971;28;20075;-71
2022/08/18 03:19:28;;;;;;;11.10;6.97;;;;;;;19.13;83.88;100739.16;5065225;28;20068;-71
2022/08/18 03:22:00;;;;;;;9.60;6.75;;;;;;;18.98;83.51;100734.47;5055243;28;20448;-72
2022/08/18 03:24:30;;;;;;;13.82;7.50;;;;;;;18.72;84.46;100743.53;5054821;28;20056;-71
2022/08/18 03:27:00;;;;;;;14.25;7.35;;;;;;;18.70;85.13;100729.13;5070688;28;20084;-72
2022/08/18 03:29:27;;;;;;;10.07;7.43;;;;;;;18.89;84.37;100733.91;5054151;28;20049;-65
2022/08/18 03:32:00;;;;;;;9.98;7.00;;;;;;;18.71;84.75;100735.50;5054221;28;20088;-71
2022/08/18 03:34:28;;;;;;;9.88;6.85;;;;;;;18.63;85.13;100739.34;5055120;28;20558;-64
2022/08/18 03:36:56;;;;;;;9.30;6.88;;;;;;;18.70;85.53;100731.13;5055125;28;20045;-65
2022/08/18 03:39:26;;;;;;;12.30;6.88;;;;;;;18.95;84.13;100729.63;5056567;28;20052;-65
2022/08/18 03:41:54;;;;;;;13.00;7.55;;;;;;;18.96;84.17;100734.84;5053856;28;20103;-65
2022/08/18 03:44:29;;;;;;;11.98;6.95;;;;;;;18.90;83.57;100738.28;5054998;28;20432;-71
2022/08/18 03:46:57;;;;;;;12.30;7.15;;;;;;;18.93;83.43;100729.97;5053604;28;20052;-65
2022/08/18 03:49:26;;;;;;;9.75;6.93;;;;;;;19.07;83.03;100737.84;5069914;28;20068;-65
2022/08/18 03:51:53;;;;;;;11.95;7.50;;;;;;;19.12;82.32;100743.13;5070246;28;20063;-72
2022/08/18 03:54:21;;;;;;;12.20;7.18;;;;;;;19.07;82.83;100740.63;5060842;28;20595;-65
2022/08/18 03:56:48;;;;;;;11.77;7.20;;;;;;;18.98;82.24;100735.28;5054533;28;20033;-71
2022/08/18 03:59:20;;;;;;;12.40;6.82;;;;;;;19.32;82.06;100739.13;5053519;28;20061;-71
2022/08/18 04:01:49;;;;;;;12.00;6.95;;;;;;;19.30;81.03;100732.28;5057400;28;20052;-72
2022/08/18 04:04:21;;;;;;;9.98;7.55;;;;;;;19.08;81.62;100731.91;5053751;28;20048;-72
2022/08/18 04:06:57;;;;;;;11.27;6.72;;;;;;;19.00;82.58;100724.53;5071181;28;20069;-71
2022/08/18 04:09:26;;;;;;;9.73;6.53;;;;;;;18.88;82.84;100721.91;5054567;28;20415;-71
2022/08/18 04:11:54;;;;;;;13.27;7.90;;;;;;;18.91;82.66;100729.56;5054879;28;20056;-71
2022/08/18 04:14:23;;;;;;;12.55;6.82;;;;;;;18.94;82.48;100730.81;5053729;28;20488;-71
2022/08/18 04:16:51;;;;;;;9.88;6.95;;;;;;;18.93;82.67;100729.19;5054070;28;20075;-71
2022/08/18 04:19:19;;;;;;;12.45;7.25;;;;;;;18.88;82.61;100721.91;5071253;28;20052;-71
2022/08/18 04:21:54;;;;;;;14.13;8.00;;;;;;;18.78;83.74;100725.31;5069814;28;20052;-71
2022/08/18 04:24:22;;;;;;;11.05;7.43;;;;;;;18.78;83.30;100732.88;5054534;28;20053;-65
2022/08/18 04:26:51;;;;;;;11.32;7.32;;;;;;;18.82;83.49;100725.38;5052888;28;20056;-71
2022/08/18 04:29:19;;;;;;;9.38;7.05;;;;;;;19.06;82.92;100727.84;5068119;28;20079;-71
2022/08/18 04:31:49;;;;;;;9.27;7.15;;;;;;;19.23;82.15;100726.56;5054794;28;20053;-65
2022/08/18 04:34:19;;;;;;;11.23;7.32;;;;;;;19.19;81.33;100722.91;5052727;28;20068;-71
2022/08/18 04:36:47;;;;;;;11.05;7.70;;;;;;;19.32;81.44;100732.75;5052034;28;20049;-64
2022/08/18 04:39:14;;;;;;;12.18;7.20;;;;;;;19.53;80.54;100731.13;5053235;28;20063;-64
2022/08/18 04:41:42;;;;;;;15.07;7.65;;;;;;;19.58;80.25;100741.22;5051816;28;20144;-64
2022/08/18 04:44:11;;;;;;;10.70;7.47;;;;;;;19.45;80.99;100731.38;5070221;28;20052;-64
2022/08/18 04:46:42;;;;;;;9.35;7.40;;;;;;;19.45;81.38;100736.97;5054135;28;20052;-64
2022/08/18 04:49:10;;;;;;;13.90;7.78;;;;;;;19.56;81.29;100733.16;5036670;28;20060;-71
2022/08/18 04:51:43;;;;;;;15.93;7.82;;;;;;;19.51;80.85;100736.28;5068814;28;20045;-64
2022/08/18 04:54:35;;;;;;;12.45;7.38;;;;;;;19.58;80.72;100728.03;5053653;28;20487;-64
2022/08/18 04:57:15;;;;;;;9.23;7.35;;;;;;;19.82;79.92;100744.38;5069564;28;20048;-64
2022/08/18 04:59:44;;;;;;;10.05;7.50;;;;;;;19.59;80.93;100748.41;5051855;28;20060;-64
2022/08/18 05:02:13;;;;;;;9.95;7.68;;;;;;;19.83;80.39;100750.78;5054505;28;20049;-64
2022/08/18 05:04:45;;;;;;;11.73;7.40;;;;;;;19.95;78.85;100757.00;5069341;28;20053;-64
2022/08/18 05:07:16;;;;;;;14.93;7.07;;;;;;;19.89;79.54;100752.09;5069184;28;20049;-65
2022/08/18 05:09:44;;;;;;;12.40;7.70;;;;;;;19.70;79.44;100755.78;5052126;28;20531;-65
2022/08/18 05:12:12;;;;;;;16.65;8.18;;;;;;;19.62;79.80;100761.63;5052280;28;20064;-71
2022/08/18 05:14:43;;;;;;;11.88;7.70;;;;;;;19.37;80.53;100771.56;5053640;28;20516;-65
2022/08/18 05:17:13;;;;;;;9.82;7.40;;;;;;;19.28;82.48;100770.94;5052427;28;20060;-64
2022/08/18 05:19:41;;;;;;;10.77;7.63;;;;;;;19.18;82.11;100769.56;5071173;28;20522;-63
2022/08/18 05:22:13;;;;;;;;;;;;;;;19.17;83.09;100772.72;5053079;28;20484;-69
2022/08/18 05:24:42;;;;;;;11.98;7.82;;;;;;;19.22;82.72;100766.84;5036679;28;19921;-64
2022/08/18 05:27:09;;;;;;;12.43;7.80;;;;;;;19.27;82.80;100781.31;5068793;28;20361;-64
2022/08/18 05:29:37;;;;;;;15.27;8.35;;;;;;;19.46;81.80;100781.28;5052329;28;20512;-63
2022/08/18 05:32:13;;;;;;;13.68;8.15;;;;;;;19.23;81.39;100774.84;5067653;28;20064;-64
2022/08/18 05:35:11;;;;;;;11.27;7.70;;;;;;;19.05;82.76;100777.31;5053441;28;20067;-64
2022/08/18 05:37:55;;;;;;;12.77;8.30;;;;;;;18.86;83.53;100782.09;5053633;28;20041;-64
2022/08/18 05:40:24;;;;;;;11.40;8.90;;;;;;;18.97;83.62;100788.69;5050726;28;20048;-65
2022/08/18 05:42:54;;;;;;;12.88;8.40;;;;;;;18.79;83.48;100793.09;5072344;28;20418;-64
2022/08/18 05:45:22;;;;;;;10.85;8.23;;;;;;;18.34;85.31;100792.88;5066784;28;20052;-65
2022/08/18 05:47:50;;;;;;;15.90;8.63;;;;;;;18.13;86.22;100797.94;5066476;28;20040;-64
2022/08/18 05:50:19;;;;;;;12.98;8.60;;;;;;;18.12;86.88;100805.47;5064576;28;20063;-64
2022/08/18 05:53:12;;;;;;;16.80;9.18;;;;;;;18.27;87.10;100803.84;5054874;28;20045;-65
2022/08/18 05:58:42;;;;;;;12.02;7.55;;;;;;;18.81;85.67;100810.28;5068418;28;20052;-65
2022/08/18 06:01:19;;;;;;;12.50;8.35;;;;;;;19.18;83.56;100811.44;5058947;28;20072;-65
2022/08/18 06:04:06;;;;;;;11.40;8.15;;;;;;;19.55;80.61;100814.59;5055712;28;20095;-65
2022/08/18 06:06:35;;;;;;;11.20;8.63;;;;;;;19.42;80.16;100807.56;5040728;28;20410;-65
2022/08/18 06:09:17;;;;;;;16.08;8.10;;;;;;;19.18;81.49;100819.81;5054900;28;20061;-67
2022/08/18 06:11:46;;;;;;;11.68;8.52;;;;;;;19.55;80.50;100811.78;5065294;28;20543;-65
2022/08/18 06:14:13;;;;;;;10.10;8.40;;;;;;;19.60;79.88;100806.69;5065109;28;20049;-65
2022/08/18 06:17:22;;;;;;;11.68;8.27;;;;;;;19.84;78.92;100811.13;5055387;28;20048;-64
2022/08/18 06:20:13;;;;;;;15.52;8.27;;;;;;;20.20;77.63;100801.34;5030266;28;20045;-63
2022/08/18 06:23:00;;;;;;;14.68;8.15;;;;;;;20.43;76.68;100802.09;5053380;28;20061;-62
2022/08/18 06:25:33;;;;;;;14.68;9.75;;;;;;;20.37;76.37;100812.81;5055982;28;20396;-64
2022/08/18 06:28:14;;;;;;;14.02;9.00;;;;;;;20.49;75.79;100807.00;5068331;28;20057;-63
2022/08/18 06:30:54;;;;;;;12.07;9.15;;;;;;;20.46;74.82;100806.94;5051097;28;20503;-64
2022/08/18 06:33:44;;;;;;;14.50;9.73;;;;;;;20.53;74.20;100812.66;5054267;28;20055;-65
2022/08/18 06:36:27;;;;;;;12.52;9.43;;;;;;;20.33;75.42;100816.75;5050225;28;20060;-62
2022/08/18 06:39:01;;;;;;;12.98;9.52;;;;;;;20.49;74.84;100814.56;5059518;28;20432;-63
2022/08/18 06:41:37;;;;;;;17.27;9.85;;;;;;;20.54;74.83;100815.06;5055274;28;20056;-63
2022/08/18 06:44:15;;;;;;;16.25;11.18;;;;;;;20.65;73.76;100821.63;5054690;28;20057;-64
2022/08/18 06:46:53;;;;;;;15.88;10.80;;;;;;;20.89;73.45;100812.75;5062465;28;20064;-63
2022/08/18 06:49:30;;;;;;;14.85;11.43;;;;;;;20.91;72.37;100820.78;5046839;28;20054;-63
2022/08/18 06:51:57;;;;;;;14.43;10.27;;;;;;;20.78;73.84;100817.41;5049646;28;20523;-62
2022/08/18 06:54:27;;;;;;;18.45;11.90;;;;;;;20.83;73.19;100821.88;5068022;28;20056;-64
2022/08/18 06:56:56;;;;;;;38.47;13.57;;;;;;;20.74;74.29;100835.34;5054293;28;20049;-64
2022/08/18 06:59:31;;;;;;;29.38;13.00;;;;;;;20.92;73.00;100828.78;5054071;28;20049;-63
2022/08/18 07:02:03;;;;;;;29.38;12.82;;;;;;;21.04;72.50;100831.38;5055078;28;20064;-63
2022/08/18 07:04:42;;;;;;;18.58;11.77;;;;;;;20.80;73.58;100831.03;5036981;28;20057;-63
2022/08/18 07:07:29;;;;;;;29.70;13.03;;;;;;;21.09;73.12;100824.66;5054509;28;20496;-63
2022/08/18 07:10:33;;;;;;;31.20;14.35;;;;;;;20.90;73.14;100830.38;5059112;28;20148;-63
2022/08/18 07:13:11;;;;;;;23.70;14.02;;;;;;;20.87;73.42;100837.53;5055762;28;20059;-63
2022/08/18 07:15:39;;;;;;;21.05;13.98;;;;;;;20.99;73.62;100828.13;5072578;28;20404;-62
2022/08/18 07:18:07;;;;;;;21.42;12.73;;;;;;;21.11;73.26;100831.47;5044408;28;20054;-62
2022/08/18 07:20:57;;;;;;;20.98;12.98;;;;;;;21.01;73.56;100831.31;5050426;28;20053;-62
2022/08/18 07:23:30;;;;;;;18.15;12.07;;;;;;;20.97;73.95;100824.84;5044980;28;20052;-62
2022/08/18 07:26:07;;;;;;;20.25;12.98;;;;;;;20.90;73.99;100821.97;5050860;28;20056;-61
2022/08/18 07:28:37;;;;;;;19.25;13.93;;;;;;;20.92;73.42;100825.19;5051961;28;20048;-61
2022/08/18 07:31:23;;;;;;;22.23;14.55;;;;;;;20.85;74.20;100833.50;5053008;28;20044;-62
2022/08/18 07:34:13;;;;;;;19.50;14.43;;;;;;;20.76;74.67;100841.38;5055301;28;20048;-61
2022/08/18 07:36:46;;;;;;;18.38;13.43;;;;;;;20.95;74.23;100832.84;5021306;28;20048;-61
2022/08/18 07:39:19;;;;;;;20.90;15.18;;;;;;;20.92;74.18;100833.59;5063087;28;20053;-62
2022/08/18 07:41:51;;;;;;;27.30;16.05;;;;;;;21.01;73.47;100836.94;5054779;28;20404;-62
2022/08/18 07:44:33;;;;;;;20.88;15.05;;;;;;;21.20;73.45;100845.97;5051279;28;20537;-63
2022/08/18 07:47:04;;;;;;;21.50;16.17;;;;;;;21.17;73.13;100838.34;5068261;28;20424;-62
2022/08/18 07:49:33;;;;;;;19.55;15.43;;;;;;;21.24;73.38;100848.81;5051336;28;20052;-62
2022/08/18 07:52:11;;;;;;;22.23;16.23;;;;;;;21.40;72.48;100855.03;5027952;28;20041;-62
2022/08/18 07:55:23;;;;;;;22.20;15.90;;;;;;;21.49;72.09;100843.50;5043607;28;20056;-63
2022/08/18 07:57:59;;;;;;;21.85;16.00;;;;;;;21.48;72.35;100845.50;5051597;28;20041;-63
2022/08/18 08:00:44;;;;;;;22.67;17.30;;;;;;;21.64;72.24;100831.25;5050070;28;20056;-63
2022/08/18 08:03:58;;;;;;;26.42;17.35;;;;;;;21.80;71.20;100837.47;5065568;28;20053;-63
2022/08/18 08:06:32;;;;;;;31.70;18.60;;;;;;;22.15;69.55;100837.78;5050294;28;20688;-63
2022/08/18 08:09:21;;;;;;;25.27;17.40;;;;;;;21.86;70.93;100839.50;5054426;28;20049;-63
2022/08/18 08:12:20;;;;;;;19.40;16.58;;;;;;;21.89;70.52;100838.75;5052671;28;20727;-64
2022/08/18 08:14:50;;;;;;;23.60;17.10;;;;;;;22.08;70.00;100840.53;5043961;28;20053;-64
2022/08/18 08:17:31;;;;;;;26.52;16.92;;;;;;;22.38;69.80;100837.56;5031341;28;20041;-64
2022/08/18 08:20:19;;;;;;;23.55;17.90;;;;;;;23.14;66.43;100825.16;5048138;28;20655;-62
2022/08/18 08:23:04;;;;;;;27.27;17.33;;;;;;;23.21;65.73;100823.19;5047526;28;20052;-64
2022/08/18 08:25:32;;;;;;;25.55;17.75;;;;;;;22.93;66.38;100816.63;5051808;28;20052;-64
2022/08/18 08:29:10;;;;;;;24.77;18.55;;;;;;;22.58;67.76;100822.09;5056852;28;20148;-63
2022/08/18 08:31:48;;;;;;;24.20;18.70;;;;;;;22.26;68.58;100814.22;5009966;28;20050;-64
2022/08/18 08:34:19;;;;;;;30.13;18.98;;;;;;;22.37;69.44;100810.69;5000153;28;20119;-64
2022/08/18 08:36:46;;;;;;;25.27;19.02;;;;;;;22.21;69.44;100805.38;5035431;28;20049;-66
2022/08/18 08:39:24;;;;;;;24.17;18.48;;;;;;;22.31;69.54;100799.84;5053972;28;20044;-63
2022/08/18 08:41:59;;;;;;;24.67;19.48;;;;;;;22.86;66.95;100800.56;5048253;28;20056;-63
2022/08/18 08:44:52;;;;;;;22.77;18.55;;;;;;;22.89;66.75;100813.03;5042882;28;20049;-63
2022/08/18 08:47:44;;;;;;;27.73;19.30;;;;;;;22.94;66.94;100810.66;5051226;28;20519;-63
2022/08/18 08:50:15;;;;;;;22.92;19.40;;;;;;;23.19;65.99;100816.34;5066031;28;20055;-63
2022/08/18 08:53:11;;;;;;;29.95;20.45;;;;;;;23.04;66.46;100826.75;5052594;28;20408;-63
2022/08/18 08:55:46;;;;;;;27.50;19.75;;;;;;;22.91;66.81;100831.09;5066230;28;20420;-63
2022/08/18 08:58:25;;;;;;;26.40;20.55;;;;;;;22.80;66.76;100837.84;5048192;28;20052;-63
2022/08/18 09:00:54;;;;;;;25.17;20.65;;;;;;;22.91;67.05;100831.09;5043953;28;20045;-64
2022/08/18 09:03:33;;;;;;;29.08;20.08;;;;;;;22.95;67.26;100831.91;5032768;28;20049;-63
2022/08/18 09:06:06;;;;;;;26.00;20.25;;;;;;;23.19;65.66;100825.59;5049895;28;20057;-64
2022/08/18 09:08:49;;;;;;;27.52;20.55;;;;;;;22.84;66.97;100833.84;5043546;28;20064;-64
2022/08/18 09:11:46;;;;;;;23.58;19.92;;;;;;;23.03;65.95;100839.16;5059920;28;20064;-64
2022/08/18 09:14:48;;;;;;;28.08;20.30;;;;;;;23.38;64.51;100838.53;5041615;28;20056;-64
2022/08/18 09:17:49;;;;;;;23.52;18.35;;;;;;;23.50;64.00;100841.00;5066143;28;20059;-63
2022/08/18 09:20:45;;;;;;;21.88;17.95;;;;;;;23.17;64.25;100836.41;5019509;28;20057;-63
2022/08/18 09:23:20;;;;;;;21.10;15.13;;;;;;;23.17;64.97;100839.22;5056334;28;20092;-63
2022/08/18 09:25:52;;;;;;;21.83;16.38;;;;;;;22.96;65.31;100843.97;5047415;28;20048;-63
2022/08/18 09:28:38;;;;;;;20.55;16.15;;;;;;;22.67;66.42;100845.81;5073464;28;20037;-63
2022/08/18 09:31:05;;;;;;;18.63;16.63;;;;;;;22.54;66.75;100840.88;5054574;28;21277;-63
2022/08/18 09:34:26;;;;;;;17.92;15.90;;;;;;;22.71;66.46;100843.84;5052239;28;20064;-63
2022/08/18 09:37:04;;;;;;;19.75;13.90;;;;;;;23.31;64.59;100832.88;5056396;28;20052;-63
2022/08/18 09:42:32;;;;;;;21.77;14.70;;;;;;;23.58;63.04;100833.38;5052199;28;19928;-64
2022/08/18 09:45:45;;;;;;;18.05;13.65;;;;;;;23.80;62.09;100840.66;5069291;28;20061;-64
2022/08/18 09:48:14;;;;;;;18.45;13.52;;;;;;;23.41;63.23;100843.38;5051621;28;20056;-64
2022/08/18 09:51:17;;;;;;;17.55;13.52;;;;;;;23.63;63.06;100839.41;5067030;28;20045;-64
2022/08/18 09:53:45;;;;;;;22.45;14.75;;;;;;;23.08;63.99;100844.41;5063249;28;20056;-64
2022/08/18 09:56:14;;;;;;;17.90;13.57;;;;;;;23.35;64.15;100845.78;5054946;28;20053;-63
2022/08/18 09:58:59;;;;;;;18.30;13.23;;;;;;;23.51;63.20;100839.78;5054041;28;20052;-64
2022/08/18 10:01:32;;;;;;;16.50;9.90;;;;;;;23.90;62.44;100846.28;5054705;28;20471;-64
2022/08/18 10:04:14;;;;;;;15.40;11.60;;;;;;;24.31;59.71;100836.28;5060253;28;20049;-64
2022/08/18 10:06:43;;;;;;;15.83;11.87;;;;;;;24.35;59.32;100830.66;5057324;28;20057;-64
2022/08/18 10:09:45;;;;;;;14.43;10.25;;;;;;;24.58;58.81;100827.38;5055272;28;20053;-63
2022/08/18 10:12:25;;;;;;;13.10;10.52;;;;;;;24.60;57.88;100825.75;5055291;28;20062;-64
2022/08/18 10:15:16;;;;;;;14.03;10.17;;;;;;;24.83;56.65;100817.69;5056049;28;20064;-64
2022/08/18 10:18:21;;;;;;;15.38;9.40;;;;;;;24.72;57.22;100807.69;5060680;28;20082;-62
2022/08/18 10:21:17;;;;;;;11.83;9.53;;;;;;;25.01;56.46;100804.34;5055150;28;20700;-63
2022/08/18 10:24:16;;;;;;;14.20;9.27;;;;;;;24.85;56.72;100798.38;5055581;28;20060;-64
2022/08/18 10:27:30;;;;;;;15.65;9.48;;;;;;;24.77;56.39;100798.81;5061022;28;20531;-62
2022/08/18 10:29:58;;;;;;;13.40;9.85;;;;;;;24.97;55.87;100792.28;5059260;28;20040;-63
2022/08/18 10:32:41;;;;;;;16.20;11.60;;;;;;;24.86;56.21;100796.34;5047580;28;20060;-63
2022/08/18 10:35:33;;;;;;;12.32;9.65;;;;;;;24.34;56.19;100789.59;5036839;28;20091;-64
2022/08/18 10:38:42;;;;;;;11.88;9.10;;;;;;;24.53;56.32;100792.78;5034162;28;20057;-64
2022/08/18 10:41:25;;;;;;;16.00;11.68;;;;;;;24.66;54.87;100783.91;5049583;28;20068;-66
2022/08/18 10:43:58;;;;;;;13.52;9.93;;;;;;;24.60;56.11;100789.13;5064729;28;20041;-65
2022/08/18 10:46:28;;;;;;;14.85;10.57;;;;;;;24.84;54.48;100788.31;5053653;28;20049;-63
2022/08/18 10:49:12;;;;;;;13.30;9.20;;;;;;;25.16;53.47;100776.88;5051955;28;20451;-63
2022/08/18 10:52:08;;;;;;;11.52;7.63;;;;;;;25.43;52.12;100780.78;5058716;28;20157;-64
2022/08/18 10:55:09;;;;;;;10.03;7.53;;;;;;;25.72;51.02;100784.25;5067667;28;20041;-64
2022/08/18 10:58:14;;;;;;;8.23;6.45;;;;;;;25.16;51.00;100786.16;5055404;28;20415;-63
2022/08/18 11:00:55;;;;;;;9.70;5.97;;;;;;;25.04;51.02;100772.50;5039151;28;20128;-63
2022/08/18 11:03:41;;;;;;;9.38;6.50;;;;;;;25.18;50.90;100780.09;5049382;28;20088;-63
2022/08/18 11:06:25;;;;;;;8.05;5.88;;;;;;;25.26;50.58;100781.69;5054034;28;20061;-63
2022/08/18 11:08:56;;;;;;;6.93;5.50;;;;;;;25.40;50.03;100781.63;5045046;28;20054;-63
2022/08/18 11:11:30;;;;;;;9.48;6.50;;;;;;;25.40;50.43;100765.50;5067661;28;20503;-63
2022/08/18 11:14:13;;;;;;;9.55;6.53;;;;;;;25.75;49.80;100761.59;5054072;28;20064;-64
2022/08/18 11:16:44;;;;;;;9.05;6.25;;;;;;;25.33;51.12;100773.19;5047434;28;20061;-64
2022/08/18 11:19:13;;;;;;;9.02;5.95;;;;;;;25.34;50.73;100764.31;5069780;28;20415;-65
2022/08/18 11:21:45;;;;;;;10.65;6.78;;;;;;;25.95;49.98;100764.69;5065055;28;20052;-63
2022/08/18 11:24:30;;;;;;;12.00;6.60;;;;;;;25.62;49.04;100773.81;5054242;28;20045;-63
2022/08/18 11:27:06;;;;;;;8.95;6.47;;;;;;;25.27;49.77;100766.34;5052136;28;20139;-63
2022/08/18 11:29:42;;;;;;;9.07;6.80;;;;;;;25.64;49.51;100777.03;5050653;28;20057;-63
2022/08/18 11:32:15;;;;;;;9.63;8.02;;;;;;;25.72;48.88;100787.06;5052653;28;20057;-63
2022/08/18 11:34:52;;;;;;;11.13;7.45;;;;;;;25.95;48.02;100776.78;5057099;28;20041;-63
2022/08/18 11:37:34;;;;;;;14.35;7.18;;;;;;;25.71;48.92;100774.97;5052011;28;20044;-66
2022/08/18 11:40:25;;;;;;;12.20;6.13;;;;;;;25.63;49.53;100764.94;5050088;28;20183;-64
2022/08/18 11:43:16;;;;;;;11.43;6.05;;;;;;;25.59;49.18;100761.34;5051987;28;20061;-64
2022/08/18 11:45:54;;;;;;;8.30;5.30;;;;;;;25.87;47.81;100765.97;5048423;28;20059;-64
2022/08/18 11:48:30;;;;;;;9.05;6.03;;;;;;;25.59;48.78;100769.81;5034774;28;20061;-64
2022/08/18 11:51:24;;;;;;;6.95;5.60;;;;;;;25.82;48.59;100772.84;5051360;28;20404;-64
2022/08/18 11:54:07;;;;;;;7.22;5.28;;;;;;;26.11;47.47;100777.06;5051325;28;20048;-64
2022/08/18 11:56:37;;;;;;;8.65;4.72;;;;;;;25.67;47.45;100779.81;5057402;28;20061;-64
2022/08/18 11:59:07;;;;;;;7.60;5.20;;;;;;;25.76;47.11;100782.97;5049831;28;20503;-63
2022/08/18 12:01:50;;;;;;;6.97;4.60;;;;;;;25.85;46.58;100786.16;5039952;28;20485;-63
2022/08/18 12:04:38;;;;;;;10.10;4.57;;;;;;;26.34;44.76;100779.28;5043463;28;20053;-63
2022/08/18 12:07:12;;;;;;;8.73;4.57;;;;;;;26.83;44.67;100772.31;5047965;28;20055;-64
2022/08/18 12:10:10;;;;;;;8.43;4.30;;;;;;;26.58;45.13;100773.38;5068241;28;20049;-64
2022/08/18 12:12:46;;;;;;;9.00;4.65;;;;;;;25.78;46.28;100785.38;5042338;28;20059;-66